sensor_id;sensor_type;location;lat;lon;timestamp;temperature;humidity
9915;DHT22;4996;48.746;9.174;2023-08-21T00:01:01;27.00;99.90
9915;DHT22;4996;48.746;9.174;2023-08-21T00:03:27;27.00;99.90
9915;DHT22;4996;48.746;9.174;2023-08-21T00:05:52;27.00;99.90
9915;DHT22;4996;48.746;9.174;2023-08-21T00:08:18;27.00;99.90
9915;DHT22;4996;48.746;9.174;2023-08-21T00:10:44;27.00;99.90
9915;DHT22;4996;48.746;9.174;2023-08-21T00:13:09;27.00;99.90
9915;DHT22;4996;48.746;9.174;2023-08-21T00:15:36;27.00;99.90
9915;DHT22;4996;48.746;9.174;2023-08-21T00:18:02;27.00;99.90
9915;DHT22;4996;48.746;9.174;2023-08-21T00:20:28;27.00;99.90
9915;DHT22;4996;48.746;9.174;2023-08-21T00:22:53;27.00;99.90
9915;DHT22;4996;48.746;9.174;2023-08-21T00:25:20;27.00;99.90
9915;DHT22;4996;48.746;9.174;2023-08-21T00:27:46;27.00;99.90
9915;DHT22;4996;48.746;9.174;2023-08-21T00:30:11;27.00;99.90
9915;DHT22;4996;48.746;9.174;2023-08-21T00:32:40;27.00;99.90
9915;DHT22;4996;48.746;9.174;2023-08-21T00:35:06;27.00;99.90
9915;DHT22;4996;48.746;9.174;2023-08-21T00:37:31;27.00;99.90
9915;DHT22;4996;48.746;9.174;2023-08-21T00:39:57;26.90;99.90
9915;DHT22;4996;48.746;9.174;2023-08-21T00:42:22;26.90;99.90
9915;DHT22;4996;48.746;9.174;2023-08-21T00:44:48;26.90;99.90
9915;DHT22;4996;48.746;9.174;2023-08-21T00:47:14;26.80;99.90
9915;DHT22;4996;48.746;9.174;2023-08-21T00:49:39;26.80;99.90
9915;DHT22;4996;48.746;9.174;2023-08-21T00:52:08;26.70;99.90
9915;DHT22;4996;48.746;9.174;2023-08-21T00:54:34;26.80;99.90
9915;DHT22;4996;48.746;9.174;2023-08-21T00:57:00;26.80;99.90
9915;DHT22;4996;48.746;9.174;2023-08-21T00:59:26;26.80;99.90
9915;DHT22;4996;48.746;9.174;2023-08-21T01:01:52;26.70;99.90
9915;DHT22;4996;48.746;9.174;2023-08-21T01:04:17;26.70;99.90
9915;DHT22;4996;48.746;9.174;2023-08-21T01:06:43;26.60;99.90
9915;DHT22;4996;48.746;9.174;2023-08-21T01:12:06;26.60;99.90
9915;DHT22;4996;48.746;9.174;2023-08-21T01:17:12;26.60;99.90
9915;DHT22;4996;48.746;9.174;2023-08-21T01:19:42;26.50;99.90
9915;DHT22;4996;48.746;9.174;2023-08-21T01:22:08;26.50;99.90
9915;DHT22;4996;48.746;9.174;2023-08-21T01:24:34;26.40;99.90
9915;DHT22;4996;48.746;9.174;2023-08-21T01:27:00;26.40;99.90
9915;DHT22;4996;48.746;9.174;2023-08-21T01:29:26;26.40;99.90
9915;DHT22;4996;48.746;9.174;2023-08-21T01:32:22;26.40;99.90
9915;DHT22;4996;48.746;9.174;2023-08-21T01:34:50;26.30;99.90
9915;DHT22;4996;48.746;9.174;2023-08-21T01:37:17;26.30;99.90
9915;DHT22;4996;48.746;9.174;2023-08-21T01:39:42;26.20;99.90
9915;DHT22;4996;48.746;9.174;2023-08-21T01:42:08;26.20;99.90
9915;DHT22;4996;48.746;9.174;2023-08-21T01:44:33;26.20;99.90
9915;DHT22;4996;48.746;9.174;2023-08-21T01:46:59;26.40;99.90
9915;DHT22;4996;48.746;9.174;2023-08-21T01:49:25;26.10;99.90
9915;DHT22;4996;48.746;9.174;2023-08-21T01:51:50;26.10;99.90
9915;DHT22;4996;48.746;9.174;2023-08-21T01:54:16;26.10;99.90
9915;DHT22;4996;48.746;9.174;2023-08-21T01:56:41;26.10;99.90
9915;DHT22;4996;48.746;9.174;2023-08-21T01:59:07;26.00;99.90
9915;DHT22;4996;48.746;9.174;2023-08-21T02:01:33;26.00;99.90
9915;DHT22;4996;48.746;9.174;2023-08-21T02:03:59;26.00;99.90
9915;DHT22;4996;48.746;9.174;2023-08-21T02:06:24;25.90;99.90
9915;DHT22;4996;48.746;9.174;2023-08-21T02:08:50;25.90;99.90
9915;DHT22;4996;48.746;9.174;2023-08-21T02:11:15;25.80;99.90
9915;DHT22;4996;48.746;9.174;2023-08-21T02:13:41;25.80;99.90
9915;DHT22;4996;48.746;9.174;2023-08-21T02:16:06;25.70;99.90
9915;DHT22;4996;48.746;9.174;2023-08-21T02:18:32;25.60;99.90
9915;DHT22;4996;48.746;9.174;2023-08-21T02:21:00;25.60;99.90
9915;DHT22;4996;48.746;9.174;2023-08-21T02:23:25;25.50;99.90
9915;DHT22;4996;48.746;9.174;2023-08-21T02:25:51;25.40;99.90
9915;DHT22;4996;48.746;9.174;2023-08-21T02:28:17;25.40;99.90
9915;DHT22;4996;48.746;9.174;2023-08-21T02:30:42;25.40;99.90
9915;DHT22;4996;48.746;9.174;2023-08-21T02:33:08;25.30;99.90
9915;DHT22;4996;48.746;9.174;2023-08-21T02:35:34;25.20;99.90
9915;DHT22;4996;48.746;9.174;2023-08-21T02:37:59;25.20;99.90
9915;DHT22;4996;48.746;9.174;2023-08-21T02:40:25;25.20;99.90
9915;DHT22;4996;48.746;9.174;2023-08-21T02:42:50;25.20;99.90
9915;DHT22;4996;48.746;9.174;2023-08-21T02:45:16;25.20;99.90
9915;DHT22;4996;48.746;9.174;2023-08-21T02:47:42;25.10;99.90
9915;DHT22;4996;48.746;9.174;2023-08-21T02:50:09;25.10;99.90
9915;DHT22;4996;48.746;9.174;2023-08-21T02:52:35;25.10;99.90
9915;DHT22;4996;48.746;9.174;2023-08-21T02:55:01;25.10;99.90
9915;DHT22;4996;48.746;9.174;2023-08-21T02:57:27;25.00;99.90
9915;DHT22;4996;48.746;9.174;2023-08-21T02:59:54;25.00;99.90
9915;DHT22;4996;48.746;9.174;2023-08-21T03:02:19;24.90;99.90
9915;DHT22;4996;48.746;9.174;2023-08-21T03:04:45;25.00;99.90
9915;DHT22;4996;48.746;9.174;2023-08-21T03:07:11;24.90;99.90
9915;DHT22;4996;48.746;9.174;2023-08-21T03:09:37;24.90;99.90
9915;DHT22;4996;48.746;9.174;2023-08-21T03:12:03;24.90;99.90
9915;DHT22;4996;48.746;9.174;2023-08-21T03:14:29;24.90;99.90
9915;DHT22;4996;48.746;9.174;2023-08-21T03:16:54;24.90;99.90
9915;DHT22;4996;48.746;9.174;2023-08-21T03:19:20;24.90;99.90
9915;DHT22;4996;48.746;9.174;2023-08-21T03:21:46;24.80;99.90
9915;DHT22;4996;48.746;9.174;2023-08-21T03:24:11;24.80;99.90
9915;DHT22;4996;48.746;9.174;2023-08-21T03:26:37;24.80;99.90
9915;DHT22;4996;48.746;9.174;2023-08-21T03:29:02;24.80;99.90
9915;DHT22;4996;48.746;9.174;2023-08-21T03:31:29;24.80;99.90
9915;DHT22;4996;48.746;9.174;2023-08-21T03:33:55;24.70;99.90
9915;DHT22;4996;48.746;9.174;2023-08-21T03:36:20;24.70;99.90
9915;DHT22;4996;48.746;9.174;2023-08-21T03:38:46;24.60;99.90
9915;DHT22;4996;48.746;9.174;2023-08-21T03:41:11;24.60;99.90
9915;DHT22;4996;48.746;9.174;2023-08-21T03:43:37;24.60;99.90
9915;DHT22;4996;48.746;9.174;2023-08-21T03:46:03;24.60;99.90
9915;DHT22;4996;48.746;9.174;2023-08-21T03:48:29;24.60;99.90
9915;DHT22;4996;48.746;9.174;2023-08-21T03:50:54;24.50;99.90
9915;DHT22;4996;48.746;9.174;2023-08-21T03:53:21;24.50;99.90
9915;DHT22;4996;48.746;9.174;2023-08-21T03:55:46;24.50;99.90
9915;DHT22;4996;48.746;9.174;2023-08-21T03:58:13;24.50;99.90
9915;DHT22;4996;48.746;9.174;2023-08-21T04:00:38;24.50;99.90
9915;DHT22;4996;48.746;9.174;2023-08-21T04:03:04;24.40;99.90
9915;DHT22;4996;48.746;9.174;2023-08-21T04:05:29;24.40;99.90
9915;DHT22;4996;48.746;9.174;2023-08-21T04:07:55;24.30;99.90
9915;DHT22;4996;48.746;9.174;2023-08-21T04:10:20;24.30;99.90
9915;DHT22;4996;48.746;9.174;2023-08-21T04:12:46;24.40;99.90
9915;DHT22;4996;48.746;9.174;2023-08-21T04:15:11;24.40;99.90
9915;DHT22;4996;48.746;9.174;2023-08-21T04:17:37;24.40;99.90
9915;DHT22;4996;48.746;9.174;2023-08-21T04:20:03;24.40;99.90
9915;DHT22;4996;48.746;9.174;2023-08-21T04:22:28;24.40;99.90
9915;DHT22;4996;48.746;9.174;2023-08-21T04:24:54;24.40;99.90
9915;DHT22;4996;48.746;9.174;2023-08-21T04:27:19;24.50;99.90
9915;DHT22;4996;48.746;9.174;2023-08-21T04:29:45;24.40;99.90
9915;DHT22;4996;48.746;9.174;2023-08-21T04:32:10;24.50;99.90
9915;DHT22;4996;48.746;9.174;2023-08-21T04:34:37;24.40;99.90
9915;DHT22;4996;48.746;9.174;2023-08-21T04:37:03;24.40;99.90
9915;DHT22;4996;48.746;9.174;2023-08-21T04:39:29;24.40;99.90
9915;DHT22;4996;48.746;9.174;2023-08-21T04:41:55;24.50;99.90
9915;DHT22;4996;48.746;9.174;2023-08-21T04:44:20;24.50;99.90
9915;DHT22;4996;48.746;9.174;2023-08-21T04:46:48;24.50;99.90
9915;DHT22;4996;48.746;9.174;2023-08-21T04:49:14;24.60;99.90
9915;DHT22;4996;48.746;9.174;2023-08-21T04:51:39;24.60;99.90
9915;DHT22;4996;48.746;9.174;2023-08-21T04:54:05;24.60;99.90
9915;DHT22;4996;48.746;9.174;2023-08-21T04:56:30;24.60;99.90
9915;DHT22;4996;48.746;9.174;2023-08-21T04:58:55;24.60;99.90
9915;DHT22;4996;48.746;9.174;2023-08-21T05:01:21;24.70;99.90
9915;DHT22;4996;48.746;9.174;2023-08-21T05:03:46;24.70;99.90
9915;DHT22;4996;48.746;9.174;2023-08-21T05:06:12;24.70;99.90
9915;DHT22;4996;48.746;9.174;2023-08-21T05:08:37;24.70;99.90
9915;DHT22;4996;48.746;9.174;2023-08-21T05:11:03;24.70;99.90
9915;DHT22;4996;48.746;9.174;2023-08-21T05:13:28;24.70;99.90
9915;DHT22;4996;48.746;9.174;2023-08-21T05:15:58;24.80;99.90
9915;DHT22;4996;48.746;9.174;2023-08-21T05:18:24;24.80;99.90
9915;DHT22;4996;48.746;9.174;2023-08-21T05:20:51;24.70;99.90
9915;DHT22;4996;48.746;9.174;2023-08-21T05:23:17;24.70;99.90
9915;DHT22;4996;48.746;9.174;2023-08-21T05:25:43;24.80;99.90
9915;DHT22;4996;48.746;9.174;2023-08-21T05:28:09;24.60;99.90
9915;DHT22;4996;48.746;9.174;2023-08-21T05:30:35;24.60;99.90
9915;DHT22;4996;48.746;9.174;2023-08-21T05:33:02;24.70;99.90
9915;DHT22;4996;48.746;9.174;2023-08-21T05:35:27;24.70;99.90
9915;DHT22;4996;48.746;9.174;2023-08-21T05:37:53;24.70;99.90
9915;DHT22;4996;48.746;9.174;2023-08-21T05:40:18;24.80;99.90
9915;DHT22;4996;48.746;9.174;2023-08-21T05:42:44;24.80;99.90
9915;DHT22;4996;48.746;9.174;2023-08-21T05:45:10;24.90;99.90
9915;DHT22;4996;48.746;9.174;2023-08-21T05:47:36;24.90;99.90
9915;DHT22;4996;48.746;9.174;2023-08-21T05:50:01;25.00;99.90
9915;DHT22;4996;48.746;9.174;2023-08-21T05:52:27;25.00;99.90
9915;DHT22;4996;48.746;9.174;2023-08-21T05:54:53;25.10;99.90
9915;DHT22;4996;48.746;9.174;2023-08-21T05:57:18;25.20;99.90
9915;DHT22;4996;48.746;9.174;2023-08-21T05:59:45;25.20;99.90
9915;DHT22;4996;48.746;9.174;2023-08-21T06:02:11;25.30;99.90
9915;DHT22;4996;48.746;9.174;2023-08-21T06:04:41;25.40;99.90
9915;DHT22;4996;48.746;9.174;2023-08-21T06:07:06;25.40;99.90
9915;DHT22;4996;48.746;9.174;2023-08-21T06:09:32;25.60;99.90
9915;DHT22;4996;48.746;9.174;2023-08-21T06:11:59;25.60;99.90
9915;DHT22;4996;48.746;9.174;2023-08-21T06:14:26;25.80;99.90
9915;DHT22;4996;48.746;9.174;2023-08-21T06:16:58;25.80;99.90
9915;DHT22;4996;48.746;9.174;2023-08-21T06:19:24;25.80;99.90
9915;DHT22;4996;48.746;9.174;2023-08-21T06:21:50;25.90;99.90
9915;DHT22;4996;48.746;9.174;2023-08-21T06:24:15;26.00;99.90
9915;DHT22;4996;48.746;9.174;2023-08-21T06:26:41;26.00;99.90
9915;DHT22;4996;48.746;9.174;2023-08-21T06:29:07;26.10;99.90
9915;DHT22;4996;48.746;9.174;2023-08-21T06:31:32;26.20;99.90
9915;DHT22;4996;48.746;9.174;2023-08-21T06:33:58;26.30;99.90
9915;DHT22;4996;48.746;9.174;2023-08-21T06:36:23;26.40;99.90
9915;DHT22;4996;48.746;9.174;2023-08-21T06:38:49;26.50;99.90
9915;DHT22;4996;48.746;9.174;2023-08-21T06:41:14;26.50;99.90
9915;DHT22;4996;48.746;9.174;2023-08-21T06:43:40;26.60;99.90
9915;DHT22;4996;48.746;9.174;2023-08-21T06:46:06;26.70;99.90
9915;DHT22;4996;48.746;9.174;2023-08-21T06:48:32;26.90;99.90
9915;DHT22;4996;48.746;9.174;2023-08-21T06:50:58;27.00;99.90
9915;DHT22;4996;48.746;9.174;2023-08-21T06:53:24;27.10;99.90
9915;DHT22;4996;48.746;9.174;2023-08-21T06:55:49;27.10;99.90
9915;DHT22;4996;48.746;9.174;2023-08-21T06:58:15;27.20;99.90
9915;DHT22;4996;48.746;9.174;2023-08-21T07:00:40;27.30;99.90
9915;DHT22;4996;48.746;9.174;2023-08-21T07:03:06;27.40;99.90
9915;DHT22;4996;48.746;9.174;2023-08-21T07:05:34;27.50;99.90
9915;DHT22;4996;48.746;9.174;2023-08-21T07:08:00;27.60;99.90
9915;DHT22;4996;48.746;9.174;2023-08-21T07:10:25;27.60;99.90
9915;DHT22;4996;48.746;9.174;2023-08-21T07:12:53;27.70;99.90
9915;DHT22;4996;48.746;9.174;2023-08-21T07:15:18;27.80;99.90
9915;DHT22;4996;48.746;9.174;2023-08-21T07:17:44;27.80;99.90
9915;DHT22;4996;48.746;9.174;2023-08-21T07:20:09;28.00;99.90
9915;DHT22;4996;48.746;9.174;2023-08-21T07:22:36;28.00;99.90
9915;DHT22;4996;48.746;9.174;2023-08-21T07:25:01;28.10;99.90
9915;DHT22;4996;48.746;9.174;2023-08-21T07:27:30;28.10;99.90
9915;DHT22;4996;48.746;9.174;2023-08-21T07:29:55;28.10;99.90
9915;DHT22;4996;48.746;9.174;2023-08-21T07:32:21;28.20;99.90
9915;DHT22;4996;48.746;9.174;2023-08-21T07:34:46;28.30;99.90
9915;DHT22;4996;48.746;9.174;2023-08-21T07:37:12;28.30;99.90
9915;DHT22;4996;48.746;9.174;2023-08-21T07:39:37;28.40;99.90
9915;DHT22;4996;48.746;9.174;2023-08-21T07:42:03;28.40;99.90
9915;DHT22;4996;48.746;9.174;2023-08-21T07:44:28;28.40;99.90
9915;DHT22;4996;48.746;9.174;2023-08-21T07:46:54;28.40;99.90
9915;DHT22;4996;48.746;9.174;2023-08-21T07:49:19;28.60;99.90
9915;DHT22;4996;48.746;9.174;2023-08-21T07:51:45;28.70;99.90
9915;DHT22;4996;48.746;9.174;2023-08-21T07:54:11;28.70;99.90
9915;DHT22;4996;48.746;9.174;2023-08-21T07:56:37;28.90;99.90
9915;DHT22;4996;48.746;9.174;2023-08-21T07:59:05;29.00;99.90
9915;DHT22;4996;48.746;9.174;2023-08-21T08:01:30;29.20;99.90
9915;DHT22;4996;48.746;9.174;2023-08-21T08:03:56;29.20;99.90
9915;DHT22;4996;48.746;9.174;2023-08-21T08:06:21;29.30;99.90
9915;DHT22;4996;48.746;9.174;2023-08-21T08:08:47;29.40;99.90
9915;DHT22;4996;48.746;9.174;2023-08-21T08:11:12;29.60;99.90
9915;DHT22;4996;48.746;9.174;2023-08-21T08:13:38;29.50;99.90
9915;DHT22;4996;48.746;9.174;2023-08-21T08:16:03;29.70;99.90
9915;DHT22;4996;48.746;9.174;2023-08-21T08:18:29;29.60;99.90
9915;DHT22;4996;48.746;9.174;2023-08-21T08:20:54;29.80;99.90
9915;DHT22;4996;48.746;9.174;2023-08-21T08:23:20;30.00;99.90
9915;DHT22;4996;48.746;9.174;2023-08-21T08:25:46;30.20;99.90
9915;DHT22;4996;48.746;9.174;2023-08-21T08:28:12;30.30;99.90
9915;DHT22;4996;48.746;9.174;2023-08-21T08:30:37;30.50;99.90
9915;DHT22;4996;48.746;9.174;2023-08-21T08:33:03;30.60;99.90
9915;DHT22;4996;48.746;9.174;2023-08-21T08:35:28;30.80;99.90
9915;DHT22;4996;48.746;9.174;2023-08-21T08:37:54;31.10;99.90
9915;DHT22;4996;48.746;9.174;2023-08-21T08:40:20;30.90;99.90
9915;DHT22;4996;48.746;9.174;2023-08-21T08:42:46;31.00;99.90
9915;DHT22;4996;48.746;9.174;2023-08-21T08:45:13;31.30;99.90
9915;DHT22;4996;48.746;9.174;2023-08-21T08:47:40;31.70;99.90
9915;DHT22;4996;48.746;9.174;2023-08-21T08:50:07;31.50;99.90
9915;DHT22;4996;48.746;9.174;2023-08-21T08:52:38;31.50;99.90
9915;DHT22;4996;48.746;9.174;2023-08-21T08:55:05;31.50;99.90
9915;DHT22;4996;48.746;9.174;2023-08-21T08:57:32;31.70;99.90
9915;DHT22;4996;48.746;9.174;2023-08-21T08:59:59;31.60;99.90
9915;DHT22;4996;48.746;9.174;2023-08-21T09:02:25;31.40;99.90
9915;DHT22;4996;48.746;9.174;2023-08-21T09:04:54;31.70;99.90
9915;DHT22;4996;48.746;9.174;2023-08-21T09:07:20;31.90;99.90
9915;DHT22;4996;48.746;9.174;2023-08-21T09:09:48;32.10;99.90
9915;DHT22;4996;48.746;9.174;2023-08-21T09:12:16;32.60;99.90
9915;DHT22;4996;48.746;9.174;2023-08-21T09:14:43;32.30;99.90
9915;DHT22;4996;48.746;9.174;2023-08-21T09:17:08;32.40;99.90
9915;DHT22;4996;48.746;9.174;2023-08-21T09:19:34;32.80;99.90
9915;DHT22;4996;48.746;9.174;2023-08-21T09:22:16;32.80;99.90
9915;DHT22;4996;48.746;9.174;2023-08-21T09:27:31;33.00;99.90
9915;DHT22;4996;48.746;9.174;2023-08-21T09:29:57;33.00;99.90
9915;DHT22;4996;48.746;9.174;2023-08-21T09:32:23;33.20;99.90
9915;DHT22;4996;48.746;9.174;2023-08-21T09:34:49;33.10;99.90
9915;DHT22;4996;48.746;9.174;2023-08-21T09:37:16;33.20;99.90
9915;DHT22;4996;48.746;9.174;2023-08-21T09:39:42;33.40;99.90
9915;DHT22;4996;48.746;9.174;2023-08-21T09:42:09;33.20;99.90
9915;DHT22;4996;48.746;9.174;2023-08-21T09:44:39;33.20;99.90
9915;DHT22;4996;48.746;9.174;2023-08-21T09:47:10;33.20;99.90
9915;DHT22;4996;48.746;9.174;2023-08-21T09:49:37;33.40;99.90
9915;DHT22;4996;48.746;9.174;2023-08-21T09:52:05;33.50;99.90
9915;DHT22;4996;48.746;9.174;2023-08-21T09:54:32;33.60;99.90
9915;DHT22;4996;48.746;9.174;2023-08-21T09:57:01;33.70;99.90
9915;DHT22;4996;48.746;9.174;2023-08-21T09:59:28;33.70;99.90
9915;DHT22;4996;48.746;9.174;2023-08-21T10:01:54;33.90;99.90
9915;DHT22;4996;48.746;9.174;2023-08-21T10:04:22;34.10;99.90
9915;DHT22;4996;48.746;9.174;2023-08-21T10:06:51;34.10;99.90
9915;DHT22;4996;48.746;9.174;2023-08-21T10:09:17;34.20;99.90
9915;DHT22;4996;48.746;9.174;2023-08-21T10:11:43;34.20;99.90
9915;DHT22;4996;48.746;9.174;2023-08-21T10:14:10;34.30;99.90
9915;DHT22;4996;48.746;9.174;2023-08-21T10:16:36;33.90;99.90
9915;DHT22;4996;48.746;9.174;2023-08-21T10:19:04;34.10;99.90
9915;DHT22;4996;48.746;9.174;2023-08-21T10:21:36;34.20;99.90
9915;DHT22;4996;48.746;9.174;2023-08-21T10:24:03;34.10;99.60
9915;DHT22;4996;48.746;9.174;2023-08-21T10:26:29;34.00;99.90
9915;DHT22;4996;48.746;9.174;2023-08-21T10:28:56;33.90;99.90
9915;DHT22;4996;48.746;9.174;2023-08-21T10:33:54;33.90;99.90
9915;DHT22;4996;48.746;9.174;2023-08-21T10:36:38;33.60;99.90
9915;DHT22;4996;48.746;9.174;2023-08-21T10:41:37;33.50;99.90
9915;DHT22;4996;48.746;9.174;2023-08-21T10:44:05;33.50;99.90
9915;DHT22;4996;48.746;9.174;2023-08-21T10:46:50;33.60;99.90
9915;DHT22;4996;48.746;9.174;2023-08-21T10:49:15;33.60;99.90
9915;DHT22;4996;48.746;9.174;2023-08-21T10:51:42;33.50;99.90
9915;DHT22;4996;48.746;9.174;2023-08-21T10:54:13;33.40;99.90
9915;DHT22;4996;48.746;9.174;2023-08-21T10:56:39;33.30;99.90
9915;DHT22;4996;48.746;9.174;2023-08-21T10:59:04;33.40;99.90
9915;DHT22;4996;48.746;9.174;2023-08-21T11:01:45;33.20;99.90
9915;DHT22;4996;48.746;9.174;2023-08-21T11:04:11;33.40;99.90
9915;DHT22;4996;48.746;9.174;2023-08-21T11:06:38;33.40;99.90
9915;DHT22;4996;48.746;9.174;2023-08-21T11:09:04;33.50;99.90
9915;DHT22;4996;48.746;9.174;2023-08-21T11:11:30;34.20;99.90
9915;DHT22;4996;48.746;9.174;2023-08-21T11:13:56;34.50;99.70
9915;DHT22;4996;48.746;9.174;2023-08-21T11:16:21;35.00;98.70
9915;DHT22;4996;48.746;9.174;2023-08-21T11:18:47;35.30;98.00
9915;DHT22;4996;48.746;9.174;2023-08-21T11:21:12;35.80;97.40
9915;DHT22;4996;48.746;9.174;2023-08-21T11:23:40;36.20;97.10
9915;DHT22;4996;48.746;9.174;2023-08-21T11:26:06;36.50;95.70
9915;DHT22;4996;48.746;9.174;2023-08-21T11:28:35;36.90;95.40
9915;DHT22;4996;48.746;9.174;2023-08-21T11:31:01;36.90;94.80
9915;DHT22;4996;48.746;9.174;2023-08-21T11:33:27;37.20;94.60
9915;DHT22;4996;48.746;9.174;2023-08-21T11:35:54;37.80;93.50
9915;DHT22;4996;48.746;9.174;2023-08-21T11:38:21;38.10;93.00
9915;DHT22;4996;48.746;9.174;2023-08-21T11:43:20;38.90;91.30
9915;DHT22;4996;48.746;9.174;2023-08-21T11:45:46;39.30;90.30
9915;DHT22;4996;48.746;9.174;2023-08-21T11:48:12;39.80;89.30
9915;DHT22;4996;48.746;9.174;2023-08-21T11:50:38;39.10;88.40
9915;DHT22;4996;48.746;9.174;2023-08-21T11:53:04;38.60;89.40
9915;DHT22;4996;48.746;9.174;2023-08-21T11:55:31;38.30;90.00
9915;DHT22;4996;48.746;9.174;2023-08-21T11:57:57;38.90;87.60
9915;DHT22;4996;48.746;9.174;2023-08-21T12:00:28;38.50;88.10
9915;DHT22;4996;48.746;9.174;2023-08-21T12:02:59;39.10;86.50
9915;DHT22;4996;48.746;9.174;2023-08-21T12:05:26;39.10;85.90
9915;DHT22;4996;48.746;9.174;2023-08-21T12:07:52;39.20;85.50
9915;DHT22;4996;48.746;9.174;2023-08-21T12:10:25;39.00;85.40
9915;DHT22;4996;48.746;9.174;2023-08-21T12:12:50;38.90;85.30
9915;DHT22;4996;48.746;9.174;2023-08-21T12:15:16;38.60;85.00
9915;DHT22;4996;48.746;9.174;2023-08-21T12:17:42;38.60;85.20
9915;DHT22;4996;48.746;9.174;2023-08-21T12:20:08;38.30;85.00
9915;DHT22;4996;48.746;9.174;2023-08-21T12:22:37;37.70;85.70
9915;DHT22;4996;48.746;9.174;2023-08-21T12:25:02;36.80;86.60
9915;DHT22;4996;48.746;9.174;2023-08-21T12:27:29;36.50;87.60
9915;DHT22;4996;48.746;9.174;2023-08-21T12:29:54;36.30;88.30
9915;DHT22;4996;48.746;9.174;2023-08-21T12:32:20;36.10;88.60
9915;DHT22;4996;48.746;9.174;2023-08-21T12:34:45;36.00;89.00
9915;DHT22;4996;48.746;9.174;2023-08-21T12:37:11;35.90;89.30
9915;DHT22;4996;48.746;9.174;2023-08-21T12:39:37;35.60;89.60
9915;DHT22;4996;48.746;9.174;2023-08-21T12:42:03;35.30;90.20
9915;DHT22;4996;48.746;9.174;2023-08-21T12:44:28;35.10;91.00
9915;DHT22;4996;48.746;9.174;2023-08-21T12:46:54;35.00;90.50
9915;DHT22;4996;48.746;9.174;2023-08-21T12:49:19;34.90;91.00
9915;DHT22;4996;48.746;9.174;2023-08-21T12:51:45;34.80;91.20
9915;DHT22;4996;48.746;9.174;2023-08-21T12:54:11;34.80;91.00
9915;DHT22;4996;48.746;9.174;2023-08-21T12:56:36;34.90;91.40
9915;DHT22;4996;48.746;9.174;2023-08-21T12:59:02;35.20;91.40
9915;DHT22;4996;48.746;9.174;2023-08-21T13:01:28;35.90;91.10
9915;DHT22;4996;48.746;9.174;2023-08-21T13:03:55;36.70;89.60
9915;DHT22;4996;48.746;9.174;2023-08-21T13:06:20;37.20;88.20
9915;DHT22;4996;48.746;9.174;2023-08-21T13:08:46;37.90;86.40
9915;DHT22;4996;48.746;9.174;2023-08-21T13:11:12;38.00;86.00
9915;DHT22;4996;48.746;9.174;2023-08-21T13:13:37;38.60;86.70
9915;DHT22;4996;48.746;9.174;2023-08-21T13:16:03;38.80;84.70
9915;DHT22;4996;48.746;9.174;2023-08-21T13:18:28;38.50;84.10
9915;DHT22;4996;48.746;9.174;2023-08-21T13:20:54;38.00;84.80
9915;DHT22;4996;48.746;9.174;2023-08-21T13:23:20;37.10;84.80
9915;DHT22;4996;48.746;9.174;2023-08-21T13:25:45;36.40;85.60
9915;DHT22;4996;48.746;9.174;2023-08-21T13:28:11;36.00;87.60
9915;DHT22;4996;48.746;9.174;2023-08-21T13:30:36;35.50;87.70
9915;DHT22;4996;48.746;9.174;2023-08-21T13:33:02;35.50;88.60
9915;DHT22;4996;48.746;9.174;2023-08-21T13:35:29;35.10;89.60
9915;DHT22;4996;48.746;9.174;2023-08-21T13:37:55;34.70;90.00
9915;DHT22;4996;48.746;9.174;2023-08-21T13:40:21;34.70;90.70
9915;DHT22;4996;48.746;9.174;2023-08-21T13:42:47;34.60;90.60
9915;DHT22;4996;48.746;9.174;2023-08-21T13:45:16;34.40;90.70
9915;DHT22;4996;48.746;9.174;2023-08-21T13:47:43;34.10;90.70
9915;DHT22;4996;48.746;9.174;2023-08-21T13:50:10;34.30;90.80
9915;DHT22;4996;48.746;9.174;2023-08-21T13:52:36;34.70;91.20
9915;DHT22;4996;48.746;9.174;2023-08-21T13:55:04;34.90;90.40
9915;DHT22;4996;48.746;9.174;2023-08-21T13:57:30;34.80;90.20
9915;DHT22;4996;48.746;9.174;2023-08-21T13:59:55;35.00;90.10
9915;DHT22;4996;48.746;9.174;2023-08-21T14:02:21;34.80;90.40
9915;DHT22;4996;48.746;9.174;2023-08-21T14:04:48;34.80;90.40
9915;DHT22;4996;48.746;9.174;2023-08-21T14:07:14;34.70;90.70
9915;DHT22;4996;48.746;9.174;2023-08-21T14:09:39;34.70;91.40
9915;DHT22;4996;48.746;9.174;2023-08-21T14:12:05;34.40;91.00
9915;DHT22;4996;48.746;9.174;2023-08-21T14:14:32;34.30;90.80
9915;DHT22;4996;48.746;9.174;2023-08-21T14:16:58;34.30;91.00
9915;DHT22;4996;48.746;9.174;2023-08-21T14:19:24;34.10;91.40
9915;DHT22;4996;48.746;9.174;2023-08-21T14:21:49;33.80;91.60
9915;DHT22;4996;48.746;9.174;2023-08-21T14:24:15;33.70;91.70
9915;DHT22;4996;48.746;9.174;2023-08-21T14:26:41;33.80;91.70
9915;DHT22;4996;48.746;9.174;2023-08-21T14:29:07;33.90;92.10
9915;DHT22;4996;48.746;9.174;2023-08-21T14:31:32;33.80;91.70
9915;DHT22;4996;48.746;9.174;2023-08-21T14:33:58;33.80;92.10
9915;DHT22;4996;48.746;9.174;2023-08-21T14:36:24;34.00;92.00
9915;DHT22;4996;48.746;9.174;2023-08-21T14:38:49;33.70;91.80
9915;DHT22;4996;48.746;9.174;2023-08-21T14:41:16;33.70;92.60
9915;DHT22;4996;48.746;9.174;2023-08-21T14:43:42;33.70;92.40
9915;DHT22;4996;48.746;9.174;2023-08-21T14:46:08;33.90;92.00
9915;DHT22;4996;48.746;9.174;2023-08-21T14:48:33;33.70;91.80
9915;DHT22;4996;48.746;9.174;2023-08-21T14:50:59;33.80;91.90
9915;DHT22;4996;48.746;9.174;2023-08-21T14:53:24;33.70;92.00
9915;DHT22;4996;48.746;9.174;2023-08-21T14:55:50;33.70;91.60
9915;DHT22;4996;48.746;9.174;2023-08-21T14:58:16;33.70;91.50
9915;DHT22;4996;48.746;9.174;2023-08-21T15:00:41;33.70;91.80
9915;DHT22;4996;48.746;9.174;2023-08-21T15:03:07;33.60;91.70
9915;DHT22;4996;48.746;9.174;2023-08-21T15:05:32;33.70;91.90
9915;DHT22;4996;48.746;9.174;2023-08-21T15:07:58;33.70;91.90
9915;DHT22;4996;48.746;9.174;2023-08-21T15:10:27;33.80;91.80
9915;DHT22;4996;48.746;9.174;2023-08-21T15:12:52;33.60;91.90
9915;DHT22;4996;48.746;9.174;2023-08-21T15:15:18;33.70;92.00
9915;DHT22;4996;48.746;9.174;2023-08-21T15:17:46;33.60;91.80
9915;DHT22;4996;48.746;9.174;2023-08-21T15:20:11;33.50;91.80
9915;DHT22;4996;48.746;9.174;2023-08-21T15:22:39;33.60;92.00
9915;DHT22;4996;48.746;9.174;2023-08-21T15:25:05;33.40;92.20
9915;DHT22;4996;48.746;9.174;2023-08-21T15:27:31;33.40;92.10
9915;DHT22;4996;48.746;9.174;2023-08-21T15:29:57;33.50;92.30
9915;DHT22;4996;48.746;9.174;2023-08-21T15:32:22;33.40;92.30
9915;DHT22;4996;48.746;9.174;2023-08-21T15:34:48;33.20;92.40
9915;DHT22;4996;48.746;9.174;2023-08-21T15:37:13;32.90;93.20
9915;DHT22;4996;48.746;9.174;2023-08-21T15:39:39;32.90;92.80
9915;DHT22;4996;48.746;9.174;2023-08-21T15:42:04;33.00;92.60
9915;DHT22;4996;48.746;9.174;2023-08-21T15:44:30;32.90;92.70
9915;DHT22;4996;48.746;9.174;2023-08-21T15:46:56;33.10;93.00
9915;DHT22;4996;48.746;9.174;2023-08-21T15:49:21;33.00;93.10
9915;DHT22;4996;48.746;9.174;2023-08-21T15:51:47;33.20;93.10
9915;DHT22;4996;48.746;9.174;2023-08-21T15:54:17;33.00;93.00
9915;DHT22;4996;48.746;9.174;2023-08-21T15:56:43;32.70;93.10
9915;DHT22;4996;48.746;9.174;2023-08-21T15:59:09;32.70;93.30
9915;DHT22;4996;48.746;9.174;2023-08-21T16:01:34;32.80;93.40
9915;DHT22;4996;48.746;9.174;2023-08-21T16:04:00;32.90;93.50
9915;DHT22;4996;48.746;9.174;2023-08-21T16:06:25;33.00;93.70
9915;DHT22;4996;48.746;9.174;2023-08-21T16:08:51;32.80;93.60
9915;DHT22;4996;48.746;9.174;2023-08-21T16:11:16;32.80;93.20